sensor_id;sensor_type;location;lat;lon;timestamp;temperature;humidity
76956;DHT22;65894;53.206;-6.108;2023-02-26T00:01:41;20.43;53.45
76956;DHT22;65894;53.206;-6.108;2023-02-26T00:04:08;20.43;53.48
76956;DHT22;65894;53.206;-6.108;2023-02-26T00:06:36;20.44;53.62
76956;DHT22;65894;53.206;-6.108;2023-02-26T00:09:05;20.43;53.63
76956;DHT22;65894;53.206;-6.108;2023-02-26T00:11:31;20.40;53.47
76956;DHT22;65894;53.206;-6.108;2023-02-26T00:13:57;20.41;53.50
76956;DHT22;65894;53.206;-6.108;2023-02-26T00:16:34;20.43;53.44
76956;DHT22;65894;53.206;-6.108;2023-02-26T00:19:03;20.40;53.50
76956;DHT22;65894;53.206;-6.108;2023-02-26T00:21:30;20.40;53.53
76956;DHT22;65894;53.206;-6.108;2023-02-26T00:23:57;20.40;53.46
76956;DHT22;65894;53.206;-6.108;2023-02-26T00:26:24;20.43;53.56
76956;DHT22;65894;53.206;-6.108;2023-02-26T00:28:50;20.44;53.43
76956;DHT22;65894;53.206;-6.108;2023-02-26T00:31:17;20.44;53.28
76956;DHT22;65894;53.206;-6.108;2023-02-26T00:33:45;20.44;53.30
76956;DHT22;65894;53.206;-6.108;2023-02-26T00:39:08;20.40;53.33
76956;DHT22;65894;53.206;-6.108;2023-02-26T00:41:38;20.41;53.35
76956;DHT22;65894;53.206;-6.108;2023-02-26T00:44:04;20.40;53.33
76956;DHT22;65894;53.206;-6.108;2023-02-26T00:46:55;20.39;53.33
76956;DHT22;65894;53.206;-6.108;2023-02-26T00:49:37;20.41;53.29
76956;DHT22;65894;53.206;-6.108;2023-02-26T00:52:13;20.40;53.35
76956;DHT22;65894;53.206;-6.108;2023-02-26T00:54:39;20.40;53.25
76956;DHT22;65894;53.206;-6.108;2023-02-26T00:57:04;20.41;53.34
76956;DHT22;65894;53.206;-6.108;2023-02-26T00:59:31;20.41;53.26
76956;DHT22;65894;53.206;-6.108;2023-02-26T01:01:56;20.43;53.27
76956;DHT22;65894;53.206;-6.108;2023-02-26T01:04:23;20.43;53.32
76956;DHT22;65894;53.206;-6.108;2023-02-26T01:06:52;20.43;53.23
76956;DHT22;65894;53.206;-6.108;2023-02-26T01:09:33;20.40;53.25
76956;DHT22;65894;53.206;-6.108;2023-02-26T01:12:04;20.43;53.18
76956;DHT22;65894;53.206;-6.108;2023-02-26T01:14:30;20.41;53.25
76956;DHT22;65894;53.206;-6.108;2023-02-26T01:20:00;20.41;53.24
76956;DHT22;65894;53.206;-6.108;2023-02-26T01:22:38;20.40;53.20
76956;DHT22;65894;53.206;-6.108;2023-02-26T01:25:14;20.40;53.27
76956;DHT22;65894;53.206;-6.108;2023-02-26T01:27:41;20.43;53.23
76956;DHT22;65894;53.206;-6.108;2023-02-26T01:30:07;20.43;53.16
76956;DHT22;65894;53.206;-6.108;2023-02-26T01:35:43;20.43;53.17
76956;DHT22;65894;53.206;-6.108;2023-02-26T01:46:22;20.44;53.19
76956;DHT22;65894;53.206;-6.108;2023-02-26T01:48:51;20.46;53.07
76956;DHT22;65894;53.206;-6.108;2023-02-26T01:51:18;20.46;53.24
76956;DHT22;65894;53.206;-6.108;2023-02-26T01:54:01;20.46;53.14
76956;DHT22;65894;53.206;-6.108;2023-02-26T01:56:26;20.46;53.21
76956;DHT22;65894;53.206;-6.108;2023-02-26T01:58:52;20.40;53.17
76956;DHT22;65894;53.206;-6.108;2023-02-26T02:01:18;20.41;53.06
76956;DHT22;65894;53.206;-6.108;2023-02-26T02:03:44;20.44;53.16
76956;DHT22;65894;53.206;-6.108;2023-02-26T02:06:17;20.43;53.09
76956;DHT22;65894;53.206;-6.108;2023-02-26T02:08:44;20.43;53.12
76956;DHT22;65894;53.206;-6.108;2023-02-26T02:11:10;20.46;53.06
76956;DHT22;65894;53.206;-6.108;2023-02-26T02:13:39;20.46;53.05
76956;DHT22;65894;53.206;-6.108;2023-02-26T02:16:38;20.44;53.14
76956;DHT22;65894;53.206;-6.108;2023-02-26T02:32:47;20.46;53.01
76956;DHT22;65894;53.206;-6.108;2023-02-26T02:35:20;20.46;53.00
76956;DHT22;65894;53.206;-6.108;2023-02-26T02:38:03;20.46;53.06
76956;DHT22;65894;53.206;-6.108;2023-02-26T02:40:34;20.46;53.03
76956;DHT22;65894;53.206;-6.108;2023-02-26T02:43:10;20.49;53.01
76956;DHT22;65894;53.206;-6.108;2023-02-26T02:45:42;20.47;53.05
76956;DHT22;65894;53.206;-6.108;2023-02-26T02:48:31;20.44;52.99
76956;DHT22;65894;53.206;-6.108;2023-02-26T02:51:22;20.46;53.05
76956;DHT22;65894;53.206;-6.108;2023-02-26T02:54:00;20.46;53.03
76956;DHT22;65894;53.206;-6.108;2023-02-26T02:56:29;20.49;53.04
76956;DHT22;65894;53.206;-6.108;2023-02-26T02:59:09;20.47;53.03
76956;DHT22;65894;53.206;-6.108;2023-02-26T03:01:37;20.49;53.03
76956;DHT22;65894;53.206;-6.108;2023-02-26T03:04:08;20.49;52.90
76956;DHT22;65894;53.206;-6.108;2023-02-26T03:06:36;20.49;52.84
76956;DHT22;65894;53.206;-6.108;2023-02-26T03:09:03;20.47;53.00
76956;DHT22;65894;53.206;-6.108;2023-02-26T03:11:30;20.49;52.94
76956;DHT22;65894;53.206;-6.108;2023-02-26T03:13:57;20.47;52.93
76956;DHT22;65894;53.206;-6.108;2023-02-26T03:21:52;20.47;52.95
76956;DHT22;65894;53.206;-6.108;2023-02-26T03:24:49;20.49;52.98
76956;DHT22;65894;53.206;-6.108;2023-02-26T03:27:18;20.49;52.96
76956;DHT22;65894;53.206;-6.108;2023-02-26T03:29:50;20.47;52.93
76956;DHT22;65894;53.206;-6.108;2023-02-26T03:32:52;20.47;52.93
76956;DHT22;65894;53.206;-6.108;2023-02-26T03:37:59;20.50;52.93
76956;DHT22;65894;53.206;-6.108;2023-02-26T03:40:30;20.54;52.90
76956;DHT22;65894;53.206;-6.108;2023-02-26T03:43:21;20.50;52.88
76956;DHT22;65894;53.206;-6.108;2023-02-26T03:45:50;20.51;52.89
76956;DHT22;65894;53.206;-6.108;2023-02-26T03:48:18;20.49;52.82
76956;DHT22;65894;53.206;-6.108;2023-02-26T03:50:49;20.51;52.78
76956;DHT22;65894;53.206;-6.108;2023-02-26T03:53:24;20.51;52.87
76956;DHT22;65894;53.206;-6.108;2023-02-26T03:56:10;20.53;52.78
76956;DHT22;65894;53.206;-6.108;2023-02-26T03:58:56;20.54;52.91
76956;DHT22;65894;53.206;-6.108;2023-02-26T04:01:29;20.50;52.91
76956;DHT22;65894;53.206;-6.108;2023-02-26T04:04:03;20.51;52.88
76956;DHT22;65894;53.206;-6.108;2023-02-26T04:06:29;20.50;52.85
76956;DHT22;65894;53.206;-6.108;2023-02-26T04:08:55;20.50;52.97
76956;DHT22;65894;53.206;-6.108;2023-02-26T04:11:22;20.53;52.81
76956;DHT22;65894;53.206;-6.108;2023-02-26T04:13:50;20.51;52.93
76956;DHT22;65894;53.206;-6.108;2023-02-26T04:16:16;20.49;52.90
76956;DHT22;65894;53.206;-6.108;2023-02-26T04:18:44;20.53;52.90
76956;DHT22;65894;53.206;-6.108;2023-02-26T04:21:13;20.56;52.84
76956;DHT22;65894;53.206;-6.108;2023-02-26T04:23:39;20.53;52.89
76956;DHT22;65894;53.206;-6.108;2023-02-26T04:26:05;20.54;52.78
76956;DHT22;65894;53.206;-6.108;2023-02-26T04:28:31;20.53;52.89
76956;DHT22;65894;53.206;-6.108;2023-02-26T04:30:56;20.53;52.76
76956;DHT22;65894;53.206;-6.108;2023-02-26T04:33:22;20.54;52.81
76956;DHT22;65894;53.206;-6.108;2023-02-26T04:35:48;20.54;52.70
76956;DHT22;65894;53.206;-6.108;2023-02-26T04:38:13;20.56;52.85
76956;DHT22;65894;53.206;-6.108;2023-02-26T04:40:40;20.54;52.79
76956;DHT22;65894;53.206;-6.108;2023-02-26T04:43:08;20.54;52.76
76956;DHT22;65894;53.206;-6.108;2023-02-26T04:45:44;20.54;52.79
76956;DHT22;65894;53.206;-6.108;2023-02-26T04:48:10;20.54;52.82
76956;DHT22;65894;53.206;-6.108;2023-02-26T04:50:35;20.54;52.76
76956;DHT22;65894;53.206;-6.108;2023-02-26T04:53:01;20.54;52.85
76956;DHT22;65894;53.206;-6.108;2023-02-26T04:55:26;20.54;52.73
76956;DHT22;65894;53.206;-6.108;2023-02-26T04:57:52;20.56;52.78
76956;DHT22;65894;53.206;-6.108;2023-02-26T05:00:22;20.54;52.77
76956;DHT22;65894;53.206;-6.108;2023-02-26T05:02:47;20.57;52.79
76956;DHT22;65894;53.206;-6.108;2023-02-26T05:05:13;20.54;52.69
76956;DHT22;65894;53.206;-6.108;2023-02-26T05:07:38;20.56;52.68
76956;DHT22;65894;53.206;-6.108;2023-02-26T05:10:05;20.57;52.70
76956;DHT22;65894;53.206;-6.108;2023-02-26T05:12:31;20.57;52.71
76956;DHT22;65894;53.206;-6.108;2023-02-26T05:14:58;20.54;52.65
76956;DHT22;65894;53.206;-6.108;2023-02-26T05:17:23;20.57;52.72
76956;DHT22;65894;53.206;-6.108;2023-02-26T05:19:49;20.56;52.58
76956;DHT22;65894;53.206;-6.108;2023-02-26T05:22:14;20.59;52.67
76956;DHT22;65894;53.206;-6.108;2023-02-26T05:24:40;20.57;52.70
76956;DHT22;65894;53.206;-6.108;2023-02-26T05:27:05;20.57;52.71
76956;DHT22;65894;53.206;-6.108;2023-02-26T05:29:33;20.57;52.72
76956;DHT22;65894;53.206;-6.108;2023-02-26T05:32:00;20.63;52.63
76956;DHT22;65894;53.206;-6.108;2023-02-26T05:34:26;20.57;52.62
76956;DHT22;65894;53.206;-6.108;2023-02-26T05:36:51;20.59;52.68
76956;DHT22;65894;53.206;-6.108;2023-02-26T05:39:17;20.59;52.65
76956;DHT22;65894;53.206;-6.108;2023-02-26T05:41:42;20.59;52.66
76956;DHT22;65894;53.206;-6.108;2023-02-26T05:44:08;20.59;52.65
76956;DHT22;65894;53.206;-6.108;2023-02-26T05:46:33;20.57;52.61
76956;DHT22;65894;53.206;-6.108;2023-02-26T05:48:59;20.59;52.52
76956;DHT22;65894;53.206;-6.108;2023-02-26T05:51:24;20.59;52.58
76956;DHT22;65894;53.206;-6.108;2023-02-26T05:53:50;20.61;52.50
76956;DHT22;65894;53.206;-6.108;2023-02-26T05:56:15;20.60;52.54
76956;DHT22;65894;53.206;-6.108;2023-02-26T05:58:41;20.60;52.54
76956;DHT22;65894;53.206;-6.108;2023-02-26T06:01:06;20.57;52.54
76956;DHT22;65894;53.206;-6.108;2023-02-26T06:03:32;20.60;52.58
76956;DHT22;65894;53.206;-6.108;2023-02-26T06:05:57;20.60;52.60
76956;DHT22;65894;53.206;-6.108;2023-02-26T06:08:23;20.60;52.54
76956;DHT22;65894;53.206;-6.108;2023-02-26T06:10:49;20.57;52.48
76956;DHT22;65894;53.206;-6.108;2023-02-26T06:13:16;20.60;52.49
76956;DHT22;65894;53.206;-6.108;2023-02-26T06:15:41;20.60;52.57
76956;DHT22;65894;53.206;-6.108;2023-02-26T06:18:07;20.60;52.59
76956;DHT22;65894;53.206;-6.108;2023-02-26T06:20:33;20.63;52.49
76956;DHT22;65894;53.206;-6.108;2023-02-26T06:22:58;20.63;52.48
76956;DHT22;65894;53.206;-6.108;2023-02-26T06:25:24;20.63;52.43
76956;DHT22;65894;53.206;-6.108;2023-02-26T06:27:49;20.63;52.49
76956;DHT22;65894;53.206;-6.108;2023-02-26T06:30:15;20.63;52.42
76956;DHT22;65894;53.206;-6.108;2023-02-26T06:32:42;20.63;52.47
76956;DHT22;65894;53.206;-6.108;2023-02-26T06:35:08;20.60;52.43
76956;DHT22;65894;53.206;-6.108;2023-02-26T06:37:34;20.61;52.41
76956;DHT22;65894;53.206;-6.108;2023-02-26T06:39:59;20.63;52.52
76956;DHT22;65894;53.206;-6.108;2023-02-26T06:42:25;20.63;52.40
76956;DHT22;65894;53.206;-6.108;2023-02-26T06:44:51;20.64;52.46
76956;DHT22;65894;53.206;-6.108;2023-02-26T06:47:16;20.63;52.42
76956;DHT22;65894;53.206;-6.108;2023-02-26T06:49:42;20.63;52.42
76956;DHT22;65894;53.206;-6.108;2023-02-26T06:52:07;20.64;52.38
76956;DHT22;65894;53.206;-6.108;2023-02-26T06:54:33;20.64;52.44
76956;DHT22;65894;53.206;-6.108;2023-02-26T06:56:58;20.63;52.43
76956;DHT22;65894;53.206;-6.108;2023-02-26T06:59:25;20.63;52.41
76956;DHT22;65894;53.206;-6.108;2023-02-26T07:01:51;20.63;52.43
76956;DHT22;65894;53.206;-6.108;2023-02-26T07:04:16;20.64;52.47
76956;DHT22;65894;53.206;-6.108;2023-02-26T07:06:42;20.66;52.40
76956;DHT22;65894;53.206;-6.108;2023-02-26T07:09:07;20.66;52.35
76956;DHT22;65894;53.206;-6.108;2023-02-26T07:11:33;20.67;52.37
76956;DHT22;65894;53.206;-6.108;2023-02-26T07:13:58;20.64;52.36
76956;DHT22;65894;53.206;-6.108;2023-02-26T07:16:25;20.68;52.40
76956;DHT22;65894;53.206;-6.108;2023-02-26T07:18:50;20.64;52.41
76956;DHT22;65894;53.206;-6.108;2023-02-26T07:21:16;20.66;52.44
76956;DHT22;65894;53.206;-6.108;2023-02-26T07:23:41;20.64;52.49
76956;DHT22;65894;53.206;-6.108;2023-02-26T07:26:07;20.64;52.49
76956;DHT22;65894;53.206;-6.108;2023-02-26T07:28:33;20.67;52.46
76956;DHT22;65894;53.206;-6.108;2023-02-26T07:30:58;20.67;52.38
76956;DHT22;65894;53.206;-6.108;2023-02-26T07:33:24;20.63;52.44
76956;DHT22;65894;53.206;-6.108;2023-02-26T07:35:53;20.70;52.39
76956;DHT22;65894;53.206;-6.108;2023-02-26T07:38:19;20.66;52.38
76956;DHT22;65894;53.206;-6.108;2023-02-26T07:40:45;20.64;52.35
76956;DHT22;65894;53.206;-6.108;2023-02-26T07:43:11;20.64;52.34
76956;DHT22;65894;53.206;-6.108;2023-02-26T07:45:36;20.64;52.24
76956;DHT22;65894;53.206;-6.108;2023-02-26T07:48:02;20.67;52.23
76956;DHT22;65894;53.206;-6.108;2023-02-26T07:50:28;20.64;52.22
76956;DHT22;65894;53.206;-6.108;2023-02-26T07:52:54;20.66;52.25
76956;DHT22;65894;53.206;-6.108;2023-02-26T07:55:20;20.67;52.14
76956;DHT22;65894;53.206;-6.108;2023-02-26T07:57:46;20.66;52.20
76956;DHT22;65894;53.206;-6.108;2023-02-26T08:00:12;20.66;52.18
76956;DHT22;65894;53.206;-6.108;2023-02-26T08:02:38;20.66;52.12
76956;DHT22;65894;53.206;-6.108;2023-02-26T08:05:04;20.63;52.14
76956;DHT22;65894;53.206;-6.108;2023-02-26T08:07:29;20.67;52.19
76956;DHT22;65894;53.206;-6.108;2023-02-26T08:09:55;20.68;52.19
76956;DHT22;65894;53.206;-6.108;2023-02-26T08:12:20;20.68;52.24
76956;DHT22;65894;53.206;-6.108;2023-02-26T08:14:46;20.68;52.17
76956;DHT22;65894;53.206;-6.108;2023-02-26T08:17:12;20.70;52.25
76956;DHT22;65894;53.206;-6.108;2023-02-26T08:19:38;20.64;52.27
76956;DHT22;65894;53.206;-6.108;2023-02-26T08:22:03;20.66;52.22
76956;DHT22;65894;53.206;-6.108;2023-02-26T08:24:29;20.68;52.23
76956;DHT22;65894;53.206;-6.108;2023-02-26T08:26:54;20.68;52.21
76956;DHT22;65894;53.206;-6.108;2023-02-26T08:29:21;20.67;52.20
76956;DHT22;65894;53.206;-6.108;2023-02-26T08:31:46;20.70;52.15
76956;DHT22;65894;53.206;-6.108;2023-02-26T08:34:12;20.68;52.17
76956;DHT22;65894;53.206;-6.108;2023-02-26T08:36:37;20.66;52.15
76956;DHT22;65894;53.206;-6.108;2023-02-26T08:39:03;20.67;52.27
76956;DHT22;65894;53.206;-6.108;2023-02-26T08:41:29;20.68;52.15
76956;DHT22;65894;53.206;-6.108;2023-02-26T08:43:58;20.67;52.24
76956;DHT22;65894;53.206;-6.108;2023-02-26T08:46:24;20.70;52.25
76956;DHT22;65894;53.206;-6.108;2023-02-26T08:48:49;20.70;52.22
76956;DHT22;65894;53.206;-6.108;2023-02-26T08:51:15;20.67;52.26
76956;DHT22;65894;53.206;-6.108;2023-02-26T08:53:40;20.70;52.23
76956;DHT22;65894;53.206;-6.108;2023-02-26T08:56:06;20.73;52.19
76956;DHT22;65894;53.206;-6.108;2023-02-26T08:58:32;20.71;52.18
76956;DHT22;65894;53.206;-6.108;2023-02-26T09:00:57;20.70;52.16
76956;DHT22;65894;53.206;-6.108;2023-02-26T09:03:23;20.71;52.18
76956;DHT22;65894;53.206;-6.108;2023-02-26T09:05:49;20.73;52.19
76956;DHT22;65894;53.206;-6.108;2023-02-26T09:08:15;20.73;52.24
76956;DHT22;65894;53.206;-6.108;2023-02-26T09:10:41;20.71;52.22
76956;DHT22;65894;53.206;-6.108;2023-02-26T09:13:07;20.73;52.24
76956;DHT22;65894;53.206;-6.108;2023-02-26T09:15:32;20.68;52.22
76956;DHT22;65894;53.206;-6.108;2023-02-26T09:17:58;20.71;52.19
76956;DHT22;65894;53.206;-6.108;2023-02-26T09:20:24;20.70;52.18
76956;DHT22;65894;53.206;-6.108;2023-02-26T09:22:50;20.73;52.27
76956;DHT22;65894;53.206;-6.108;2023-02-26T09:25:15;20.71;52.24
76956;DHT22;65894;53.206;-6.108;2023-02-26T09:27:41;20.74;52.17
76956;DHT22;65894;53.206;-6.108;2023-02-26T09:30:07;20.73;52.25
76956;DHT22;65894;53.206;-6.108;2023-02-26T09:32:33;20.71;52.23
76956;DHT22;65894;53.206;-6.108;2023-02-26T09:34:58;20.71;52.21
76956;DHT22;65894;53.206;-6.108;2023-02-26T09:37:24;20.73;52.19
76956;DHT22;65894;53.206;-6.108;2023-02-26T09:39:49;20.71;52.20
76956;DHT22;65894;53.206;-6.108;2023-02-26T09:45:14;20.73;52.21
76956;DHT22;65894;53.206;-6.108;2023-02-26T09:47:48;20.74;52.26
76956;DHT22;65894;53.206;-6.108;2023-02-26T09:50:27;20.77;52.22
76956;DHT22;65894;53.206;-6.108;2023-02-26T09:52:59;20.78;52.54
76956;DHT22;65894;53.206;-6.108;2023-02-26T09:55:34;20.80;52.54
76956;DHT22;65894;53.206;-6.108;2023-02-26T09:58:09;20.78;52.66
76956;DHT22;65894;53.206;-6.108;2023-02-26T10:00:36;20.77;52.65
76956;DHT22;65894;53.206;-6.108;2023-02-26T10:03:24;20.76;52.62
76956;DHT22;65894;53.206;-6.108;2023-02-26T10:06:17;20.80;52.62
76956;DHT22;65894;53.206;-6.108;2023-02-26T10:14:15;20.78;52.59
76956;DHT22;65894;53.206;-6.108;2023-02-26T10:16:44;20.81;52.53
76956;DHT22;65894;53.206;-6.108;2023-02-26T10:19:18;20.83;52.48
76956;DHT22;65894;53.206;-6.108;2023-02-26T10:21:48;20.78;52.59
76956;DHT22;65894;53.206;-6.108;2023-02-26T10:24:29;20.83;52.52
76956;DHT22;65894;53.206;-6.108;2023-02-26T10:27:04;20.80;52.66
76956;DHT22;65894;53.206;-6.108;2023-02-26T10:29:59;20.85;52.76
76956;DHT22;65894;53.206;-6.108;2023-02-26T10:32:31;20.87;52.65
76956;DHT22;65894;53.206;-6.108;2023-02-26T10:35:06;20.85;52.69
76956;DHT22;65894;53.206;-6.108;2023-02-26T10:38:00;20.85;52.57
76956;DHT22;65894;53.206;-6.108;2023-02-26T10:43:27;20.84;52.65
76956;DHT22;65894;53.206;-6.108;2023-02-26T10:51:12;20.84;52.71
76956;DHT22;65894;53.206;-6.108;2023-02-26T10:53:38;20.83;52.71
76956;DHT22;65894;53.206;-6.108;2023-02-26T10:56:11;20.83;52.61
76956;DHT22;65894;53.206;-6.108;2023-02-26T10:58:38;20.83;52.63
76956;DHT22;65894;53.206;-6.108;2023-02-26T11:01:12;20.84;52.65
76956;DHT22;65894;53.206;-6.108;2023-02-26T11:03:42;20.87;52.69
76956;DHT22;65894;53.206;-6.108;2023-02-26T11:06:11;20.83;52.69
76956;DHT22;65894;53.206;-6.108;2023-02-26T11:08:42;20.85;52.65
76956;DHT22;65894;53.206;-6.108;2023-02-26T11:11:08;20.85;52.72
76956;DHT22;65894;53.206;-6.108;2023-02-26T11:13:36;20.87;52.66
76956;DHT22;65894;53.206;-6.108;2023-02-26T11:16:08;20.85;52.65
76956;DHT22;65894;53.206;-6.108;2023-02-26T11:18:39;20.85;52.69
76956;DHT22;65894;53.206;-6.108;2023-02-26T11:21:06;20.85;52.72
76956;DHT22;65894;53.206;-6.108;2023-02-26T11:23:33;20.84;52.71
76956;DHT22;65894;53.206;-6.108;2023-02-26T11:26:06;20.84;52.65
76956;DHT22;65894;53.206;-6.108;2023-02-26T11:28:37;20.85;52.63
76956;DHT22;65894;53.206;-6.108;2023-02-26T11:31:09;20.85;52.71
76956;DHT22;65894;53.206;-6.108;2023-02-26T11:33:42;20.84;52.78
76956;DHT22;65894;53.206;-6.108;2023-02-26T11:36:14;20.85;52.69
76956;DHT22;65894;53.206;-6.108;2023-02-26T11:38:44;20.85;52.72
76956;DHT22;65894;53.206;-6.108;2023-02-26T11:41:11;20.85;52.74
76956;DHT22;65894;53.206;-6.108;2023-02-26T11:43:42;20.85;52.74
76956;DHT22;65894;53.206;-6.108;2023-02-26T11:46:10;20.84;52.65
76956;DHT22;65894;53.206;-6.108;2023-02-26T11:51:04;20.85;52.87
76956;DHT22;65894;53.206;-6.108;2023-02-26T11:53:34;20.98;52.47
76956;DHT22;65894;53.206;-6.108;2023-02-26T11:56:13;21.02;52.55
76956;DHT22;65894;53.206;-6.108;2023-02-26T11:58:42;21.08;52.40
76956;DHT22;65894;53.206;-6.108;2023-02-26T12:01:10;21.02;52.52
76956;DHT22;65894;53.206;-6.108;2023-02-26T12:03:39;20.92;52.64
76956;DHT22;65894;53.206;-6.108;2023-02-26T12:06:05;20.90;52.58
76956;DHT22;65894;53.206;-6.108;2023-02-26T12:08:36;20.91;52.61
76956;DHT22;65894;53.206;-6.108;2023-02-26T12:19:33;20.83;52.60
76956;DHT22;65894;53.206;-6.108;2023-02-26T12:22:24;20.87;52.28
76956;DHT22;65894;53.206;-6.108;2023-02-26T12:30:25;20.85;52.24
76956;DHT22;65894;53.206;-6.108;2023-02-26T12:33:09;20.83;52.36
76956;DHT22;65894;53.206;-6.108;2023-02-26T12:45:01;20.88;52.34
76956;DHT22;65894;53.206;-6.108;2023-02-26T12:47:42;20.85;52.39
76956;DHT22;65894;53.206;-6.108;2023-02-26T13:01:30;20.88;52.48
76956;DHT22;65894;53.206;-6.108;2023-02-26T13:12:14;20.90;52.58
76956;DHT22;65894;53.206;-6.108;2023-02-26T13:20:25;20.92;52.67
76956;DHT22;65894;53.206;-6.108;2023-02-26T13:23:23;20.92;52.63
76956;DHT22;65894;53.206;-6.108;2023-02-26T13:26:00;20.92;52.59
76956;DHT22;65894;53.206;-6.108;2023-02-26T13:31:12;20.95;52.72
76956;DHT22;65894;53.206;-6.108;2023-02-26T13:33:40;20.94;52.71
76956;DHT22;65894;53.206;-6.108;2023-02-26T13:36:08;20.94;52.74
76956;DHT22;65894;53.206;-6.108;2023-02-26T13:39:02;20.95;52.81
76956;DHT22;65894;53.206;-6.108;2023-02-26T13:52:51;20.90;52.68
76956;DHT22;65894;53.206;-6.108;2023-02-26T14:01:25;20.91;52.77
76956;DHT22;65894;53.206;-6.108;2023-02-26T14:07:13;20.97;52.98
76956;DHT22;65894;53.206;-6.108;2023-02-26T14:17:48;20.95;53.02
76956;DHT22;65894;53.206;-6.108;2023-02-26T14:20:28;20.94;53.32
76956;DHT22;65894;53.206;-6.108;2023-02-26T14:23:21;20.98;53.01
76956;DHT22;65894;53.206;-6.108;2023-02-26T14:25:50;20.97;53.10
76956;DHT22;65894;53.206;-6.108;2023-02-26T14:33:56;20.99;53.32
76956;DHT22;65894;53.206;-6.108;2023-02-26T14:36:34;20.99;53.13
76956;DHT22;65894;53.206;-6.108;2023-02-26T14:39:04;20.95;53.15
76956;DHT22;65894;53.206;-6.108;2023-02-26T14:41:34;20.97;53.31
76956;DHT22;65894;53.206;-6.108;2023-02-26T14:44:13;20.95;53.15
76956;DHT22;65894;53.206;-6.108;2023-02-26T14:46:41;20.98;53.39
76956;DHT22;65894;53.206;-6.108;2023-02-26T14:49:16;20.98;53.35
76956;DHT22;65894;53.206;-6.108;2023-02-26T14:57:33;20.98;53.30
76956;DHT22;65894;53.206;-6.108;2023-02-26T15:00:19;20.99;53.55
76956;DHT22;65894;53.206;-6.108;2023-02-26T15:02:54;20.99;53.51
76956;DHT22;65894;53.206;-6.108;2023-02-26T15:24:04;21.02;53.68
76956;DHT22;65894;53.206;-6.108;2023-02-26T15:26:34;20.99;53.90
76956;DHT22;65894;53.206;-6.108;2023-02-26T15:29:05;21.02;53.84
76956;DHT22;65894;53.206;-6.108;2023-02-26T15:31:39;20.97;53.78
76956;DHT22;65894;53.206;-6.108;2023-02-26T15:34:05;20.97;53.80
76956;DHT22;65894;53.206;-6.108;2023-02-26T15:36:30;20.91;53.69
76956;DHT22;65894;53.206;-6.108;2023-02-26T15:38:58;20.81;53.57
76956;DHT22;65894;53.206;-6.108;2023-02-26T15:41:26;20.88;53.67
76956;DHT22;65894;53.206;-6.108;2023-02-26T15:44:09;20.84;53.61
76956;DHT22;65894;53.206;-6.108;2023-02-26T15:46:38;20.88;53.70
76956;DHT22;65894;53.206;-6.108;2023-02-26T15:49:09;20.92;53.50
76956;DHT22;65894;53.206;-6.108;2023-02-26T15:51:36;20.91;53.62
76956;DHT22;65894;53.206;-6.108;2023-02-26T15:54:03;20.90;53.52
76956;DHT22;65894;53.206;-6.108;2023-02-26T15:56:35;20.92;53.56
76956;DHT22;65894;53.206;-6.108;2023-02-26T15:59:06;20.92;53.57
76956;DHT22;65894;53.206;-6.108;2023-02-26T16:01:32;20.92;53.61
76956;DHT22;65894;53.206;-6.108;2023-02-26T16:04:03;20.91;53.71
76956;DHT22;65894;53.206;-6.108;2023-02-26T16:06:34;20.92;53.66
76956;DHT22;65894;53.206;-6.108;2023-02-26T16:09:00;20.92;53.68
76956;DHT22;65894;53.206;-6.108;2023-02-26T16:11:39;20.91;53.73
76956;DHT22;65894;53.206;-6.108;2023-02-26T16:14:06;20.91;53.73
76956;DHT22;65894;53.206;-6.108;2023-02-26T16:16:42;20.92;53.89
76956;DHT22;65894;53.206;-6.108;2023-02-26T16:19:16;20.94;53.82
76956;DHT22;65894;53.206;-6.108;2023-02-26T16:21:46;21.01;54.11
76956;DHT22;65894;53.206;-6.108;2023-02-26T16:24:16;21.01;54.15
76956;DHT22;65894;53.206;-6.108;2023-02-26T16:26:49;20.83;53.64
76956;DHT22;65894;53.206;-6.108;2023-02-26T16:29:27;20.87;55.01
76956;DHT22;65894;53.206;-6.108;2023-02-26T16:31:55;20.91;54.92
76956;DHT22;65894;53.206;-6.108;2023-02-26T16:34:31;20.97;54.59
76956;DHT22;65894;53.206;-6.108;2023-02-26T16:36:58;20.98;54.72
76956;DHT22;65894;53.206;-6.108;2023-02-26T16:39:34;20.97;54.82
76956;DHT22;65894;53.206;-6.108;2023-02-26T16:42:19;20.95;55.00
76956;DHT22;65894;53.206;-6.108;2023-02-26T16:44:50;21.01;54.91
76956;DHT22;65894;53.206;-6.108;2023-02-26T16:47:21;20.97;54.79
76956;DHT22;65894;53.206;-6.108;2023-02-26T16:49:47;20.94;54.82
76956;DHT22;65894;53.206;-6.108;2023-02-26T16:52:17;20.95;54.85
76956;DHT22;65894;53.206;-6.108;2023-02-26T16:54:52;20.91;54.68
76956;DHT22;65894;53.206;-6.108;2023-02-26T16:57:27;20.92;54.64
76956;DHT22;65894;53.206;-6.108;2023-02-26T16:59:57;20.92;54.71
76956;DHT22;65894;53.206;-6.108;2023-02-26T17:02:26;20.91;54.78
76956;DHT22;65894;53.206;-6.108;2023-02-26T17:04:58;20.95;54.54
76956;DHT22;65894;53.206;-6.108;2023-02-26T17:07:28;20.90;54.69
76956;DHT22;65894;53.206;-6.108;2023-02-26T17:10:09;20.91;54.49
76956;DHT22;65894;53.206;-6.108;2023-02-26T17:13:15;20.90;54.47
76956;DHT22;65894;53.206;-6.108;2023-02-26T17:15:40;20.91;54.58
76956;DHT22;65894;53.206;-6.108;2023-02-26T17:18:06;20.91;54.57
76956;DHT22;65894;53.206;-6.108;2023-02-26T17:20:33;20.92;54.44
76956;DHT22;65894;53.206;-6.108;2023-02-26T17:23:00;20.92;54.49
76956;DHT22;65894;53.206;-6.108;2023-02-26T17:25:33;20.91;54.61
76956;DHT22;65894;53.206;-6.108;2023-02-26T17:27:59;20.88;54.66
76956;DHT22;65894;53.206;-6.108;2023-02-26T17:30:26;20.91;54.62
76956;DHT22;65894;53.206;-6.108;2023-02-26T17:32:56;20.88;54.78
76956;DHT22;65894;53.206;-6.108;2023-02-26T17:35:22;20.88;54.70
76956;DHT22;65894;53.206;-6.108;2023-02-26T17:37:47;20.77;54.28
76956;DHT22;65894;53.206;-6.108;2023-02-26T17:40:24;20.73;54.70
76956;DHT22;65894;53.206;-6.108;2023-02-26T17:42:50;20.77;55.20
76956;DHT22;65894;53.206;-6.108;2023-02-26T17:45:16;20.87;55.22
76956;DHT22;65894;53.206;-6.108;2023-02-26T17:47:43;20.90;54.93
76956;DHT22;65894;53.206;-6.108;2023-02-26T17:50:19;20.88;54.86
76956;DHT22;65894;53.206;-6.108;2023-02-26T17:52:47;20.87;55.02
76956;DHT22;65894;53.206;-6.108;2023-02-26T17:55:12;20.87;55.03
76956;DHT22;65894;53.206;-6.108;2023-02-26T17:57:38;20.85;55.12
76956;DHT22;65894;53.206;-6.108;2023-02-26T18:00:04;20.87;55.09
76956;DHT22;65894;53.206;-6.108;2023-02-26T18:02:29;20.88;55.10
76956;DHT22;65894;53.206;-6.108;2023-02-26T18:04:55;20.85;55.14
76956;DHT22;65894;53.206;-6.108;2023-02-26T18:07:22;20.91;55.46
76956;DHT22;65894;53.206;-6.108;2023-02-26T18:09:48;20.90;55.50
76956;DHT22;65894;53.206;-6.108;2023-02-26T18:12:15;20.88;55.40
76956;DHT22;65894;53.206;-6.108;2023-02-26T18:14:41;20.85;55.40
76956;DHT22;65894;53.206;-6.108;2023-02-26T18:17:12;20.87;55.56
76956;DHT22;65894;53.206;-6.108;2023-02-26T18:19:39;20.56;49.35